createdAt,value
2023-06-10T00:00:02.579Z,21.33
2023-06-10T00:02:29.202Z,21.24
2023-06-10T00:04:56.516Z,21.17
2023-06-10T00:07:23.001Z,21.11
2023-06-10T00:09:49.464Z,21.13
2023-06-10T00:12:17.903Z,21.14
2023-06-10T00:14:44.341Z,21.15
2023-06-10T00:17:10.983Z,21.16
2023-06-10T00:19:39.875Z,21.13
2023-06-10T00:22:06.460Z,21.18
2023-06-10T00:24:32.956Z,21.19
2023-06-10T00:26:59.395Z,21.17
2023-06-10T00:29:25.996Z,21.13
2023-06-10T00:31:54.781Z,21.14
2023-06-10T00:34:21.972Z,21.14
2023-06-10T00:36:48.390Z,21.10
2023-06-10T00:39:14.826Z,21.11
2023-06-10T00:41:41.245Z,21.04
2023-06-10T00:44:07.725Z,21.04
2023-06-10T00:46:35.038Z,20.98
2023-06-10T00:49:02.078Z,21.02
2023-06-10T00:51:28.787Z,20.93
2023-06-10T00:53:55.821Z,20.96
2023-06-10T00:56:23.192Z,20.98
2023-06-10T00:58:49.691Z,20.94
2023-06-10T01:01:16.436Z,20.89
2023-06-10T01:03:43.039Z,20.89
2023-06-10T01:06:10.842Z,20.91
2023-06-10T01:08:55.445Z,20.92
2023-06-10T01:11:30.738Z,20.88
2023-06-10T01:13:59.191Z,20.81
2023-06-10T01:16:26.563Z,20.81
2023-06-10T01:18:53.544Z,20.77
2023-06-10T01:21:25.745Z,20.79
2023-06-10T01:23:56.539Z,20.74
2023-06-10T01:26:31.096Z,20.70
2023-06-10T01:29:09.591Z,20.70
2023-06-10T01:31:54.270Z,20.64
2023-06-10T01:34:24.537Z,20.48
2023-06-10T01:36:51.784Z,20.46
2023-06-10T01:39:21.654Z,20.45
2023-06-10T01:41:49.835Z,20.38
2023-06-10T01:44:20.752Z,20.28
2023-06-10T01:46:47.654Z,20.25
2023-06-10T01:49:14.611Z,20.25
2023-06-10T01:51:41.334Z,20.31
2023-06-10T01:54:07.892Z,20.17
2023-06-10T01:56:34.677Z,20.06
2023-06-10T01:59:01.258Z,20.07
2023-06-10T02:01:27.760Z,19.90
2023-06-10T02:03:54.495Z,19.99
2023-06-10T02:06:21.226Z,19.75
2023-06-10T02:08:47.651Z,19.55
2023-06-10T02:11:14.187Z,19.50
2023-06-10T02:13:40.892Z,19.40
2023-06-10T02:16:07.475Z,19.39
2023-06-10T02:18:34.719Z,19.17
2023-06-10T02:21:01.188Z,19.02
2023-06-10T02:23:27.603Z,18.89
2023-06-10T02:25:54.059Z,18.77
2023-06-10T02:28:20.679Z,18.62
2023-06-10T02:30:47.942Z,18.63
2023-06-10T02:33:15.137Z,18.39
2023-06-10T02:35:42.074Z,18.35
2023-06-10T02:38:08.612Z,18.27
2023-06-10T02:40:35.044Z,18.21
2023-06-10T02:43:01.518Z,18.16
2023-06-10T02:45:27.962Z,17.95
2023-06-10T02:47:54.413Z,18.06
2023-06-10T02:50:21.051Z,18.12
2023-06-10T02:52:47.581Z,17.93
2023-06-10T02:55:14.035Z,17.85
2023-06-10T02:57:40.843Z,17.73
2023-06-10T03:00:11.948Z,17.73
2023-06-10T03:02:39.899Z,17.72
2023-06-10T03:05:11.301Z,17.61
2023-06-10T03:07:38.219Z,17.45
2023-06-10T03:10:05.139Z,17.07
2023-06-10T03:12:31.595Z,17.06
2023-06-10T03:14:58.039Z,16.97
2023-06-10T03:17:24.846Z,17.02
2023-06-10T03:19:51.295Z,17.06
2023-06-10T03:22:18.038Z,17.00
2023-06-10T03:24:44.747Z,16.92
2023-06-10T03:27:12.001Z,16.76
2023-06-10T03:29:38.685Z,16.66
2023-06-10T03:32:05.663Z,16.77
2023-06-10T03:34:32.150Z,16.72
2023-06-10T03:36:59.049Z,16.65
2023-06-10T03:39:25.550Z,16.55
2023-06-10T03:41:52.321Z,16.51
2023-06-10T03:44:19.127Z,16.50
2023-06-10T03:46:46.579Z,16.55
2023-06-10T03:49:14.650Z,16.56
2023-06-10T03:51:41.114Z,16.44
2023-06-10T03:54:07.648Z,16.39
2023-06-10T03:56:34.089Z,16.50
2023-06-10T03:59:01.226Z,16.45
2023-06-10T04:01:28.612Z,16.49
2023-06-10T04:03:55.439Z,16.41
2023-06-10T04:06:23.721Z,16.45
2023-06-10T04:08:50.199Z,16.46
2023-06-10T04:11:16.699Z,16.40
2023-06-10T04:13:43.123Z,16.27
2023-06-10T04:16:09.580Z,16.25
2023-06-10T04:18:37.213Z,16.23
2023-06-10T04:21:03.882Z,16.32
2023-06-10T04:23:30.364Z,16.25
2023-06-10T04:25:56.756Z,16.34
2023-06-10T04:28:23.146Z,16.38
2023-06-10T04:30:49.659Z,16.34
2023-06-10T04:33:16.061Z,16.29
2023-06-10T04:35:43.322Z,16.40
2023-06-10T04:38:09.982Z,16.38
2023-06-10T04:40:36.491Z,16.51
2023-06-10T04:43:02.948Z,16.64
2023-06-10T04:45:30.792Z,16.68
2023-06-10T04:47:59.180Z,16.60
2023-06-10T04:50:25.954Z,16.54
2023-06-10T04:52:52.366Z,16.67
2023-06-10T04:55:18.917Z,16.79
2023-06-10T04:57:45.357Z,16.86
2023-06-10T05:00:12.252Z,16.89
2023-06-10T05:02:38.731Z,16.99
2023-06-10T05:05:05.326Z,17.04
2023-06-10T05:07:31.758Z,17.11
2023-06-10T05:09:58.237Z,17.12
2023-06-10T05:12:24.653Z,17.20
2023-06-10T05:14:51.289Z,17.27
2023-06-10T05:17:17.736Z,17.32
2023-06-10T05:19:44.716Z,17.41
2023-06-10T05:22:11.441Z,17.40
2023-06-10T05:24:38.015Z,17.51
2023-06-10T05:27:04.775Z,17.62
2023-06-10T05:29:31.395Z,17.73
2023-06-10T05:31:58.804Z,17.72
2023-06-10T05:34:25.403Z,17.80
2023-06-10T05:36:52.071Z,18.03
2023-06-10T05:39:18.548Z,18.16
2023-06-10T05:41:45.259Z,18.28
2023-06-10T05:44:14.210Z,18.32
2023-06-10T05:46:40.927Z,18.39
2023-06-10T05:49:07.464Z,18.58
2023-06-10T05:51:33.907Z,18.69
2023-06-10T05:54:00.479Z,18.82
2023-06-10T05:56:26.956Z,18.98
2023-06-10T05:58:53.466Z,19.21
2023-06-10T06:01:20.049Z,19.39
2023-06-10T06:03:46.771Z,19.56
2023-06-10T06:06:13.409Z,19.73
2023-06-10T06:08:39.833Z,19.88
2023-06-10T06:11:06.350Z,19.99
2023-06-10T06:13:32.861Z,20.21
2023-06-10T06:15:59.408Z,20.33
2023-06-10T06:18:26.030Z,20.49
2023-06-10T06:20:52.460Z,20.55
2023-06-10T06:23:18.913Z,20.64
2023-06-10T06:25:45.431Z,20.83
2023-06-10T06:28:11.971Z,20.93
2023-06-10T06:30:38.439Z,21.09
2023-06-10T06:33:04.982Z,21.23
2023-06-10T06:35:33.169Z,21.37
2023-06-10T06:37:59.949Z,21.57
2023-06-10T06:40:26.760Z,21.65
2023-06-10T06:42:53.240Z,21.71
2023-06-10T06:45:19.663Z,21.83
2023-06-10T06:47:46.143Z,21.91
2023-06-10T06:50:12.679Z,22.06
2023-06-10T06:52:39.375Z,22.27
2023-06-10T06:55:06.499Z,22.39
2023-06-10T06:57:33.131Z,22.52
2023-06-10T06:59:59.703Z,22.78
2023-06-10T07:02:26.230Z,22.96
2023-06-10T07:04:56.399Z,23.05
2023-06-10T07:07:23.148Z,23.23
2023-06-10T07:09:49.623Z,23.19
2023-06-10T07:12:16.110Z,23.35
2023-06-10T07:14:42.734Z,23.34
2023-06-10T07:17:09.580Z,23.50
2023-06-10T07:19:36.193Z,23.73
2023-06-10T07:22:02.772Z,23.78
2023-06-10T07:24:29.213Z,24.03
2023-06-10T07:26:55.716Z,24.25
2023-06-10T07:29:22.289Z,24.19
2023-06-10T07:31:48.711Z,24.32
2023-06-10T07:34:15.191Z,24.54
2023-06-10T07:36:41.607Z,24.53
2023-06-10T07:39:08.847Z,24.78
2023-06-10T07:41:35.357Z,24.94
2023-06-10T07:44:01.835Z,24.94
2023-06-10T07:46:29.255Z,25.07
2023-06-10T07:48:55.935Z,25.15
2023-06-10T07:51:22.826Z,25.31
2023-06-10T07:53:49.315Z,25.55
2023-06-10T07:56:15.874Z,25.62
2023-06-10T07:58:42.347Z,25.76
2023-06-10T08:01:09.710Z,25.91
2023-06-10T08:03:36.183Z,26.00
2023-06-10T08:06:03.064Z,26.15
2023-06-10T08:08:29.564Z,26.22
2023-06-10T08:10:56.118Z,26.36
2023-06-10T08:13:22.550Z,26.43
2023-06-10T08:15:51.510Z,26.37
2023-06-10T08:18:18.164Z,26.54
2023-06-10T08:20:44.777Z,26.75
2023-06-10T08:23:11.224Z,26.89
2023-06-10T08:25:37.670Z,26.92
2023-06-10T08:28:04.115Z,27.00
2023-06-10T08:30:31.316Z,27.16
2023-06-10T08:32:57.838Z,27.38
2023-06-10T08:35:24.674Z,27.39
2023-06-10T08:37:51.157Z,27.44
2023-06-10T08:40:17.774Z,27.52
2023-06-10T08:42:49.916Z,27.60
2023-06-10T08:45:19.845Z,27.79
2023-06-10T08:47:47.843Z,28.04
2023-06-10T08:50:16.140Z,28.31
2023-06-10T08:52:44.767Z,28.55
2023-06-10T08:55:12.439Z,28.41
2023-06-10T08:57:39.289Z,28.60
2023-06-10T09:00:06.788Z,28.62
2023-06-10T09:02:36.387Z,28.66
2023-06-10T09:05:03.958Z,29.00
2023-06-10T09:07:32.576Z,29.04
2023-06-10T09:10:00.827Z,29.18
2023-06-10T09:12:27.264Z,28.95
2023-06-10T09:14:53.713Z,28.95
2023-06-10T09:17:20.351Z,28.88
2023-06-10T09:19:48.730Z,29.12
2023-06-10T09:22:15.466Z,29.06
2023-06-10T09:24:42.422Z,29.35
2023-06-10T09:27:09.896Z,29.22
2023-06-10T09:29:48.307Z,29.32
2023-06-10T09:32:15.574Z,29.47
2023-06-10T09:34:42.565Z,29.64
2023-06-10T09:37:13.040Z,30.05
2023-06-10T09:39:39.652Z,30.23
2023-06-10T09:42:26.633Z,30.25
2023-06-10T09:44:53.878Z,30.43
2023-06-10T09:47:23.789Z,30.61
2023-06-10T09:49:51.678Z,30.39
2023-06-10T09:52:28.992Z,30.24
2023-06-10T09:55:00.580Z,30.49
2023-06-10T09:57:30.734Z,30.88
2023-06-10T09:59:57.171Z,30.71
2023-06-10T10:02:23.636Z,31.00
2023-06-10T10:04:50.283Z,31.25
2023-06-10T10:07:16.846Z,31.43
2023-06-10T10:09:43.793Z,31.52
2023-06-10T10:12:12.311Z,31.44
2023-06-10T10:14:39.908Z,31.44
2023-06-10T10:17:14.687Z,31.61
2023-06-10T10:19:48.355Z,31.91
2023-06-10T10:22:42.111Z,31.59
2023-06-10T10:25:13.315Z,32.10
2023-06-10T10:27:40.143Z,31.93
2023-06-10T10:30:10.987Z,32.11
2023-06-10T10:32:49.981Z,32.30
2023-06-10T10:35:19.305Z,32.39
2023-06-10T10:37:47.599Z,31.03
2023-06-10T10:40:15.648Z,30.96
2023-06-10T10:42:42.804Z,31.31
2023-06-10T10:45:11.055Z,30.46
2023-06-10T10:47:39.624Z,30.04
2023-06-10T10:50:29.450Z,29.70
2023-06-10T10:53:00.320Z,29.36
2023-06-10T10:55:27.673Z,29.09
2023-06-10T10:58:08.404Z,29.14
2023-06-10T11:00:44.394Z,29.92
2023-06-10T11:03:17.292Z,30.36
2023-06-10T11:05:49.048Z,30.92
2023-06-10T11:08:36.111Z,31.45
2023-06-10T11:11:19.698Z,31.84
2023-06-10T11:14:07.933Z,31.95
2023-06-10T11:16:44.826Z,31.95
2023-06-10T11:19:32.686Z,32.42
2023-06-10T11:22:01.005Z,32.92
2023-06-10T11:24:27.748Z,33.14
2023-06-10T11:26:54.275Z,32.95
2023-06-10T11:29:21.679Z,32.94
2023-06-10T11:31:52.628Z,32.84
2023-06-10T11:34:24.696Z,32.94
2023-06-10T11:36:52.524Z,33.10
2023-06-10T11:39:21.080Z,33.10
2023-06-10T11:41:47.801Z,33.15
2023-06-10T11:44:18.222Z,33.22
2023-06-10T11:46:46.734Z,33.45
2023-06-10T11:49:13.377Z,33.40
2023-06-10T11:51:42.555Z,32.83
2023-06-10T11:54:12.046Z,32.18
2023-06-10T11:56:38.458Z,31.50
2023-06-10T11:59:08.360Z,31.23
2023-06-10T12:01:43.166Z,31.08
2023-06-10T12:04:16.667Z,30.85
2023-06-10T12:06:50.158Z,30.93
2023-06-10T12:09:30.551Z,30.82
2023-06-10T12:12:02.872Z,30.67
2023-06-10T12:14:51.073Z,30.37
2023-06-10T12:17:17.738Z,30.26
2023-06-10T12:19:44.327Z,30.31
2023-06-10T12:22:10.774Z,30.21
2023-06-10T12:24:45.818Z,30.05
2023-06-10T12:27:13.251Z,29.81
2023-06-10T12:29:39.702Z,29.86
2023-06-10T12:32:08.443Z,29.82
2023-06-10T12:34:37.630Z,29.99
2023-06-10T12:37:06.918Z,30.29
2023-06-10T12:39:36.426Z,30.88
2023-06-10T12:42:04.278Z,30.81
2023-06-10T12:44:35.397Z,30.71
2023-06-10T12:47:08.084Z,30.66
2023-06-10T12:49:34.540Z,30.82
2023-06-10T12:52:01.146Z,31.24
2023-06-10T12:54:27.729Z,31.65
2023-06-10T12:56:54.185Z,32.15
2023-06-10T12:59:20.709Z,32.29
2023-06-10T13:01:53.524Z,32.13
2023-06-10T13:04:20.603Z,31.93
2023-06-10T13:06:48.341Z,31.14
2023-06-10T13:09:15.026Z,30.77
2023-06-10T13:11:41.848Z,30.36
2023-06-10T13:14:08.277Z,30.13
2023-06-10T13:16:34.765Z,29.96
2023-06-10T13:19:03.705Z,29.87
2023-06-10T13:21:30.177Z,29.70
2023-06-10T13:23:56.763Z,29.63
2023-06-10T13:26:23.455Z,29.60
2023-06-10T13:28:49.874Z,29.60
2023-06-10T13:31:16.685Z,29.50
2023-06-10T13:33:44.703Z,29.37
2023-06-10T13:36:11.849Z,29.49
2023-06-10T13:38:38.292Z,29.65
2023-06-10T13:41:05.134Z,29.56
2023-06-10T13:43:31.691Z,29.87
2023-06-10T13:45:58.087Z,29.96
2023-06-10T13:48:24.619Z,29.84
2023-06-10T13:50:51.168Z,29.90
2023-06-10T13:53:17.732Z,29.86
2023-06-10T13:55:44.234Z,29.97
2023-06-10T13:58:10.692Z,30.31
2023-06-10T14:00:37.091Z,30.10
2023-06-10T14:03:04.685Z,29.99
2023-06-10T14:05:32.287Z,29.77
2023-06-10T14:07:58.851Z,29.71
2023-06-10T14:10:25.451Z,29.62
2023-06-10T14:12:52.441Z,29.37
2023-06-10T14:15:19.041Z,29.20
2023-06-10T14:17:45.608Z,29.04
2023-06-10T14:20:12.817Z,28.92
2023-06-10T14:22:39.270Z,28.88
2023-06-10T14:25:06.519Z,28.78
2023-06-10T14:27:33.126Z,28.77
2023-06-10T14:29:59.805Z,28.91
2023-06-10T14:32:26.383Z,28.93
2023-06-10T14:34:52.861Z,28.84
2023-06-10T14:37:19.412Z,28.82
2023-06-10T14:39:45.922Z,28.83
2023-06-10T14:42:12.445Z,28.75
2023-06-10T14:44:38.836Z,28.80
2023-06-10T14:47:05.666Z,28.82
2023-06-10T14:49:32.138Z,28.81
2023-06-10T14:51:58.584Z,28.71
2023-06-10T14:54:25.001Z,28.75
2023-06-10T14:56:51.464Z,29.01
2023-06-10T14:59:20.992Z,29.08
2023-06-10T15:01:48.111Z,29.14
2023-06-10T15:04:14.832Z,29.21
2023-06-10T15:06:42.530Z,29.35
2023-06-10T15:09:09.086Z,29.53
2023-06-10T15:11:35.656Z,29.62
2023-06-10T15:14:02.044Z,29.55
2023-06-10T15:16:28.564Z,29.50
2023-06-10T15:18:55.028Z,29.38
2023-06-10T15:21:21.424Z,29.25
2023-06-10T15:23:48.558Z,28.92
2023-06-10T15:26:15.209Z,28.84
2023-06-10T15:28:41.668Z,28.79
2023-06-10T15:31:09.161Z,28.64
2023-06-10T15:33:35.684Z,28.60
2023-06-10T15:36:02.523Z,28.79
2023-06-10T15:38:28.992Z,29.02
2023-06-10T15:40:56.679Z,29.17
2023-06-10T15:43:23.171Z,29.24
2023-06-10T15:45:49.678Z,29.31
2023-06-10T15:48:16.254Z,29.31
2023-06-10T15:50:42.793Z,29.25
2023-06-10T15:53:09.308Z,29.10
2023-06-10T15:55:35.787Z,29.02
2023-06-10T15:58:04.778Z,28.87
2023-06-10T16:00:31.294Z,28.83
2023-06-10T16:02:57.818Z,28.86
2023-06-10T16:05:24.379Z,28.86
2023-06-10T16:07:50.807Z,28.85
2023-06-10T16:10:17.292Z,28.73
2023-06-10T16:12:43.823Z,28.82
2023-06-10T16:15:11.180Z,28.85
2023-06-10T16:17:38.996Z,28.91
2023-06-10T16:20:06.621Z,28.86
2023-06-10T16:22:33.475Z,28.83
2023-06-10T16:24:59.917Z,28.83
2023-06-10T16:27:26.721Z,28.82
2023-06-10T16:29:56.274Z,28.78
2023-06-10T16:32:22.746Z,28.73
2023-06-10T16:34:49.235Z,28.66
2023-06-10T16:37:16.078Z,28.69
2023-06-10T16:39:42.507Z,28.64
2023-06-10T16:42:09.026Z,28.64
2023-06-10T16:44:35.464Z,28.59
2023-06-10T16:47:01.963Z,28.61
2023-06-10T16:49:28.375Z,28.62
2023-06-10T16:51:54.787Z,28.60
2023-06-10T16:54:21.197Z,28.58
2023-06-10T16:56:47.728Z,28.56
2023-06-10T16:59:14.258Z,28.50
2023-06-10T17:01:40.885Z,28.49
2023-06-10T17:04:07.429Z,28.41
2023-06-10T17:06:34.025Z,28.36
2023-06-10T17:09:00.482Z,28.30
2023-06-10T17:11:27.032Z,28.30
2023-06-10T17:13:53.624Z,28.21
2023-06-10T17:16:20.135Z,28.19
2023-06-10T17:18:46.803Z,28.15
2023-06-10T17:21:13.313Z,28.11
2023-06-10T17:23:39.779Z,28.13
2023-06-10T17:26:06.226Z,28.09
2023-06-10T17:28:32.733Z,28.04
2023-06-10T17:30:59.224Z,28.01
2023-06-10T17:33:25.879Z,28.00
2023-06-10T17:35:52.456Z,27.89
2023-06-10T17:38:21.027Z,27.76
2023-06-10T17:40:47.576Z,27.75
2023-06-10T17:43:14.055Z,27.59
2023-06-10T17:45:40.606Z,27.58
2023-06-10T17:48:07.158Z,27.56
2023-06-10T17:50:33.751Z,27.54
2023-06-10T17:53:00.310Z,27.46
2023-06-10T17:55:26.722Z,27.34
2023-06-10T17:57:53.228Z,27.37
2023-06-10T18:00:20.021Z,27.25
2023-06-10T18:02:46.509Z,27.22
2023-06-10T18:05:13.394Z,27.16
2023-06-10T18:07:40.139Z,27.12
2023-06-10T18:10:07.072Z,27.13
2023-06-10T18:12:33.697Z,27.07
2023-06-10T18:15:00.174Z,27.03
2023-06-10T18:17:26.724Z,27.02
2023-06-10T18:19:53.182Z,27.00
2023-06-10T18:22:19.880Z,26.99
2023-06-10T18:24:46.330Z,26.87
2023-06-10T18:27:16.396Z,26.84
2023-06-10T18:29:43.523Z,26.79
2023-06-10T18:32:10.632Z,26.73
2023-06-10T18:34:37.388Z,26.61
2023-06-10T18:37:04.552Z,26.63
2023-06-10T18:39:31.082Z,26.60
2023-06-10T18:41:57.536Z,26.56
2023-06-10T18:44:24.004Z,26.52
2023-06-10T18:46:50.588Z,26.42
2023-06-10T18:49:16.979Z,26.40
2023-06-10T18:51:43.427Z,26.35
2023-06-10T18:54:09.934Z,26.34
2023-06-10T18:56:36.532Z,26.24
2023-06-10T18:59:03.097Z,26.26
2023-06-10T19:01:29.763Z,26.21
2023-06-10T19:03:56.805Z,26.19
2023-06-10T19:06:23.621Z,26.14
2023-06-10T19:08:50.109Z,26.05
2023-06-10T19:11:17.306Z,26.01
2023-06-10T19:13:43.861Z,26.01
2023-06-10T19:16:10.586Z,25.92
2023-06-10T19:18:37.314Z,25.79
2023-06-10T19:21:06.997Z,25.72
2023-06-10T19:23:34.736Z,25.65
2023-06-10T19:26:01.666Z,25.55
2023-06-10T19:28:28.185Z,25.53
2023-06-10T19:30:54.619Z,25.52
2023-06-10T19:33:21.150Z,25.44
2023-06-10T19:35:47.654Z,25.42
2023-06-10T19:38:14.088Z,25.33
2023-06-10T19:40:40.595Z,25.24
2023-06-10T19:43:07.334Z,25.15
2023-06-10T19:45:33.738Z,25.12
2023-06-10T19:48:00.274Z,25.09
2023-06-10T19:50:26.788Z,25.00
2023-06-10T19:52:53.258Z,24.90
2023-06-10T19:55:19.738Z,24.85
2023-06-10T19:57:46.242Z,24.86
2023-06-10T20:00:13.039Z,24.76
2023-06-10T20:02:39.661Z,24.75
2023-06-10T20:05:06.400Z,24.67
2023-06-10T20:07:32.821Z,24.58
2023-06-10T20:09:59.309Z,24.46
2023-06-10T20:12:25.827Z,24.45
2023-06-10T20:14:52.257Z,24.40
2023-06-10T20:17:18.652Z,24.24
2023-06-10T20:19:49.090Z,24.20
2023-06-10T20:22:17.096Z,23.97
2023-06-10T20:24:43.590Z,23.93
2023-06-10T20:27:10.955Z,23.81
2023-06-10T20:29:37.580Z,23.71
2023-06-10T20:32:04.221Z,23.55
2023-06-10T20:34:30.727Z,23.45
2023-06-10T20:36:57.882Z,23.30
2023-06-10T20:39:25.896Z,23.26
2023-06-10T20:41:52.443Z,23.15
2023-06-10T20:44:18.835Z,23.07
2023-06-10T20:46:45.419Z,23.08
2023-06-10T20:49:14.324Z,23.08
2023-06-10T20:51:41.893Z,22.97
2023-06-10T20:54:08.309Z,23.02
2023-06-10T20:56:34.678Z,22.92
2023-06-10T20:59:01.409Z,23.00
2023-06-10T21:01:27.899Z,23.00
2023-06-10T21:03:54.601Z,22.88
2023-06-10T21:06:21.952Z,22.82
2023-06-10T21:08:48.584Z,22.71
2023-06-10T21:11:15.041Z,22.65
2023-06-10T21:13:41.613Z,22.73
2023-06-10T21:16:08.165Z,22.67
2023-06-10T21:18:35.806Z,22.59
2023-06-10T21:21:02.337Z,22.52
2023-06-10T21:23:28.772Z,22.54
2023-06-10T21:25:55.226Z,22.55
2023-06-10T21:28:21.748Z,22.57
2023-06-10T21:30:48.130Z,22.33
2023-06-10T21:33:14.557Z,22.37
2023-06-10T21:35:41.265Z,22.22
2023-06-10T21:38:07.749Z,22.14
2023-06-10T21:40:34.145Z,22.23
2023-06-10T21:43:00.648Z,22.31
2023-06-10T21:45:27.089Z,22.25
2023-06-10T21:47:53.610Z,22.18
2023-06-10T21:50:20.125Z,22.08
2023-06-10T21:52:46.552Z,21.99
2023-06-10T21:55:13.192Z,21.97
2023-06-10T21:57:39.997Z,21.91
2023-06-10T22:00:12.691Z,21.87
2023-06-10T22:02:40.500Z,21.79
2023-06-10T22:05:08.697Z,21.76
2023-06-10T22:07:36.172Z,21.65
2023-06-10T22:10:04.443Z,21.68
2023-06-10T22:12:31.306Z,21.83
2023-06-10T22:14:57.804Z,21.99
2023-06-10T22:17:24.322Z,22.04
2023-06-10T22:19:50.900Z,22.09
2023-06-10T22:22:18.462Z,22.16
2023-06-10T22:24:50.549Z,22.18
2023-06-10T22:27:17.132Z,22.25
2023-06-10T22:29:43.562Z,22.28
2023-06-10T22:32:10.063Z,22.24
2023-06-10T22:34:36.532Z,22.22
2023-06-10T22:37:03.017Z,22.25
2023-06-10T22:39:29.434Z,22.25
2023-06-10T22:41:55.953Z,22.34
2023-06-10T22:44:22.607Z,22.25
2023-06-10T22:46:49.121Z,22.27
2023-06-10T22:49:16.478Z,22.29
2023-06-10T22:51:44.285Z,22.38
2023-06-10T22:54:11.031Z,22.34
2023-06-10T22:56:37.479Z,22.41
2023-06-10T22:59:03.935Z,22.44
2023-06-10T23:01:30.997Z,22.48
2023-06-10T23:03:58.309Z,22.40
2023-06-10T23:06:24.996Z,22.24
2023-06-10T23:08:51.433Z,22.12
2023-06-10T23:11:17.812Z,22.02
2023-06-10T23:13:44.357Z,21.82
2023-06-10T23:16:10.886Z,21.67
2023-06-10T23:18:37.616Z,21.71
2023-06-10T23:21:04.238Z,21.68
2023-06-10T23:23:34.868Z,21.64
2023-06-10T23:26:02.403Z,21.56
2023-06-10T23:28:28.876Z,21.54
2023-06-10T23:30:55.978Z,21.60
2023-06-10T23:33:23.584Z,21.63
2023-06-10T23:35:50.339Z,21.69
2023-06-10T23:38:16.872Z,21.77
2023-06-10T23:40:43.323Z,21.83
2023-06-10T23:43:11.319Z,21.83
2023-06-10T23:45:37.818Z,21.82
2023-06-10T23:48:04.927Z,21.88
2023-06-10T23:50:31.642Z,21.88
2023-06-10T23:52:58.075Z,21.91
2023-06-10T23:55:25.395Z,21.85
2023-06-10T23:57:51.999Z,21.85
